sensor_id;sensor_type;location;lat;lon;timestamp;temperature;humidity
7900;DHT22;3995;50.856;4.404;2022-12-10T00:01:51;7.50;48.20
7900;DHT22;3995;50.856;4.404;2022-12-10T00:04:19;7.50;47.90
7900;DHT22;3995;50.856;4.404;2022-12-10T00:06:47;7.50;47.80
7900;DHT22;3995;50.856;4.404;2022-12-10T00:09:15;7.50;47.90
7900;DHT22;3995;50.856;4.404;2022-12-10T00:11:43;7.60;47.90
7900;DHT22;3995;50.856;4.404;2022-12-10T00:14:14;7.50;47.60
7900;DHT22;3995;50.856;4.404;2022-12-10T00:16:41;7.50;47.80
7900;DHT22;3995;50.856;4.404;2022-12-10T00:19:10;7.50;48.40
7900;DHT22;3995;50.856;4.404;2022-12-10T00:21:38;7.50;47.70
7900;DHT22;3995;50.856;4.404;2022-12-10T00:24:05;7.60;47.80
7900;DHT22;3995;50.856;4.404;2022-12-10T00:26:35;7.60;47.90
7900;DHT22;3995;50.856;4.404;2022-12-10T00:29:04;7.60;47.90
7900;DHT22;3995;50.856;4.404;2022-12-10T00:31:34;7.60;47.80
7900;DHT22;3995;50.856;4.404;2022-12-10T00:34:03;7.70;47.80
7900;DHT22;3995;50.856;4.404;2022-12-10T00:36:34;7.70;48.30
7900;DHT22;3995;50.856;4.404;2022-12-10T00:39:03;7.70;47.80
7900;DHT22;3995;50.856;4.404;2022-12-10T00:41:31;7.70;47.80
7900;DHT22;3995;50.856;4.404;2022-12-10T00:43:58;7.70;47.80
7900;DHT22;3995;50.856;4.404;2022-12-10T00:46:26;7.70;47.80
7900;DHT22;3995;50.856;4.404;2022-12-10T00:48:53;7.70;47.60
7900;DHT22;3995;50.856;4.404;2022-12-10T00:51:22;7.70;47.50
7900;DHT22;3995;50.856;4.404;2022-12-10T00:53:53;7.70;47.60
7900;DHT22;3995;50.856;4.404;2022-12-10T00:56:23;7.60;47.60
7900;DHT22;3995;50.856;4.404;2022-12-10T00:58:51;7.60;47.80
7900;DHT22;3995;50.856;4.404;2022-12-10T01:01:21;7.60;47.70
7900;DHT22;3995;50.856;4.404;2022-12-10T01:03:52;7.60;47.60
7900;DHT22;3995;50.856;4.404;2022-12-10T01:06:22;7.60;47.70
7900;DHT22;3995;50.856;4.404;2022-12-10T01:08:52;7.60;47.60
7900;DHT22;3995;50.856;4.404;2022-12-10T01:11:21;7.50;47.50
7900;DHT22;3995;50.856;4.404;2022-12-10T01:13:49;7.50;47.50
7900;DHT22;3995;50.856;4.404;2022-12-10T01:16:18;7.40;47.70
7900;DHT22;3995;50.856;4.404;2022-12-10T01:18:47;7.40;47.80
7900;DHT22;3995;50.856;4.404;2022-12-10T01:21:17;7.50;47.80
7900;DHT22;3995;50.856;4.404;2022-12-10T01:23:45;7.50;47.70
7900;DHT22;3995;50.856;4.404;2022-12-10T01:26:16;7.40;47.50
7900;DHT22;3995;50.856;4.404;2022-12-10T01:28:44;7.40;47.70
7900;DHT22;3995;50.856;4.404;2022-12-10T01:31:14;7.30;47.80
7900;DHT22;3995;50.856;4.404;2022-12-10T01:33:42;7.30;47.80
7900;DHT22;3995;50.856;4.404;2022-12-10T01:36:11;7.30;47.80
7900;DHT22;3995;50.856;4.404;2022-12-10T01:38:39;7.30;47.90
7900;DHT22;3995;50.856;4.404;2022-12-10T01:41:10;7.20;47.90
7900;DHT22;3995;50.856;4.404;2022-12-10T01:43:56;7.20;48.00
7900;DHT22;3995;50.856;4.404;2022-12-10T01:46:25;7.20;48.00
7900;DHT22;3995;50.856;4.404;2022-12-10T01:48:53;7.10;48.10
7900;DHT22;3995;50.856;4.404;2022-12-10T01:51:22;7.10;48.20
7900;DHT22;3995;50.856;4.404;2022-12-10T01:53:49;7.10;48.30
7900;DHT22;3995;50.856;4.404;2022-12-10T01:56:18;7.10;48.20
7900;DHT22;3995;50.856;4.404;2022-12-10T01:58:47;7.10;48.20
7900;DHT22;3995;50.856;4.404;2022-12-10T02:01:24;7.10;48.20
7900;DHT22;3995;50.856;4.404;2022-12-10T02:04:04;7.20;48.20
7900;DHT22;3995;50.856;4.404;2022-12-10T02:06:44;7.20;48.20
7900;DHT22;3995;50.856;4.404;2022-12-10T02:09:22;7.20;48.10
7900;DHT22;3995;50.856;4.404;2022-12-10T02:12:05;7.20;48.00
7900;DHT22;3995;50.856;4.404;2022-12-10T02:14:44;7.20;48.10
7900;DHT22;3995;50.856;4.404;2022-12-10T02:17:22;7.10;48.30
7900;DHT22;3995;50.856;4.404;2022-12-10T02:20:00;7.10;48.50
7900;DHT22;3995;50.856;4.404;2022-12-10T02:22:32;7.10;48.80
7900;DHT22;3995;50.856;4.404;2022-12-10T02:25:02;7.10;48.90
7900;DHT22;3995;50.856;4.404;2022-12-10T02:27:35;7.10;48.80
7900;DHT22;3995;50.856;4.404;2022-12-10T02:30:07;7.20;48.70
7900;DHT22;3995;50.856;4.404;2022-12-10T02:32:37;7.20;48.50
7900;DHT22;3995;50.856;4.404;2022-12-10T02:35:09;7.30;48.50
7900;DHT22;3995;50.856;4.404;2022-12-10T02:37:42;7.30;48.40
7900;DHT22;3995;50.856;4.404;2022-12-10T02:40:14;7.30;48.50
7900;DHT22;3995;50.856;4.404;2022-12-10T02:42:43;7.40;48.60
7900;DHT22;3995;50.856;4.404;2022-12-10T02:45:13;7.40;48.40
7900;DHT22;3995;50.856;4.404;2022-12-10T02:47:41;7.40;48.30
7900;DHT22;3995;50.856;4.404;2022-12-10T02:50:10;7.40;48.30
7900;DHT22;3995;50.856;4.404;2022-12-10T02:52:38;7.40;48.20
7900;DHT22;3995;50.856;4.404;2022-12-10T02:55:05;7.50;48.20
7900;DHT22;3995;50.856;4.404;2022-12-10T02:57:37;7.50;48.10
7900;DHT22;3995;50.856;4.404;2022-12-10T03:00:11;7.50;48.20
7900;DHT22;3995;50.856;4.404;2022-12-10T03:03:02;7.60;48.20
7900;DHT22;3995;50.856;4.404;2022-12-10T03:05:35;7.60;48.10
7900;DHT22;3995;50.856;4.404;2022-12-10T03:08:12;7.50;48.10
7900;DHT22;3995;50.856;4.404;2022-12-10T03:10:45;7.50;48.00
7900;DHT22;3995;50.856;4.404;2022-12-10T03:13:17;7.50;48.00
7900;DHT22;3995;50.856;4.404;2022-12-10T03:15:46;7.50;48.10
7900;DHT22;3995;50.856;4.404;2022-12-10T03:18:17;7.40;48.10
7900;DHT22;3995;50.856;4.404;2022-12-10T03:20:46;7.40;48.90
7900;DHT22;3995;50.856;4.404;2022-12-10T03:23:16;7.30;48.50
7900;DHT22;3995;50.856;4.404;2022-12-10T03:25:45;7.40;48.60
7900;DHT22;3995;50.856;4.404;2022-12-10T03:28:13;7.40;48.50
7900;DHT22;3995;50.856;4.404;2022-12-10T03:30:42;7.50;48.40
7900;DHT22;3995;50.856;4.404;2022-12-10T03:33:10;7.50;48.30
7900;DHT22;3995;50.856;4.404;2022-12-10T03:35:39;7.50;48.40
7900;DHT22;3995;50.856;4.404;2022-12-10T03:38:07;7.50;48.40
7900;DHT22;3995;50.856;4.404;2022-12-10T03:40:35;7.50;48.30
7900;DHT22;3995;50.856;4.404;2022-12-10T03:43:03;7.40;48.30
7900;DHT22;3995;50.856;4.404;2022-12-10T03:45:30;7.50;48.50
7900;DHT22;3995;50.856;4.404;2022-12-10T03:47:57;7.50;48.50
7900;DHT22;3995;50.856;4.404;2022-12-10T03:50:24;7.40;48.30
7900;DHT22;3995;50.856;4.404;2022-12-10T03:52:53;7.40;48.20
7900;DHT22;3995;50.856;4.404;2022-12-10T03:55:20;7.40;48.30
7900;DHT22;3995;50.856;4.404;2022-12-10T03:57:47;7.40;48.40
7900;DHT22;3995;50.856;4.404;2022-12-10T04:00:15;7.40;48.50
7900;DHT22;3995;50.856;4.404;2022-12-10T04:02:42;7.40;48.40
7900;DHT22;3995;50.856;4.404;2022-12-10T04:05:10;7.40;48.50
7900;DHT22;3995;50.856;4.404;2022-12-10T04:07:37;7.40;48.50
7900;DHT22;3995;50.856;4.404;2022-12-10T04:10:08;7.40;48.30
7900;DHT22;3995;50.856;4.404;2022-12-10T04:12:36;7.40;48.40
7900;DHT22;3995;50.856;4.404;2022-12-10T04:15:03;7.40;48.40
7900;DHT22;3995;50.856;4.404;2022-12-10T04:17:47;7.40;48.60
7900;DHT22;3995;50.856;4.404;2022-12-10T04:20:15;7.30;48.60
7900;DHT22;3995;50.856;4.404;2022-12-10T04:22:55;7.40;48.70
7900;DHT22;3995;50.856;4.404;2022-12-10T04:25:47;7.40;48.70
7900;DHT22;3995;50.856;4.404;2022-12-10T04:28:31;7.30;48.60
7900;DHT22;3995;50.856;4.404;2022-12-10T04:30:59;7.30;48.60
7900;DHT22;3995;50.856;4.404;2022-12-10T04:33:26;7.30;48.50
7900;DHT22;3995;50.856;4.404;2022-12-10T04:35:53;7.30;48.50
7900;DHT22;3995;50.856;4.404;2022-12-10T04:38:20;7.30;49.10
7900;DHT22;3995;50.856;4.404;2022-12-10T04:40:49;7.30;48.60
7900;DHT22;3995;50.856;4.404;2022-12-10T04:43:17;7.30;48.70
7900;DHT22;3995;50.856;4.404;2022-12-10T04:45:44;7.30;49.40
7900;DHT22;3995;50.856;4.404;2022-12-10T04:48:12;7.40;49.00
7900;DHT22;3995;50.856;4.404;2022-12-10T04:50:39;7.40;48.90
7900;DHT22;3995;50.856;4.404;2022-12-10T04:53:06;7.40;48.80
7900;DHT22;3995;50.856;4.404;2022-12-10T04:55:34;7.40;48.70
7900;DHT22;3995;50.856;4.404;2022-12-10T04:58:03;7.40;48.70
7900;DHT22;3995;50.856;4.404;2022-12-10T05:00:30;7.40;48.80
7900;DHT22;3995;50.856;4.404;2022-12-10T05:02:57;7.40;48.70
7900;DHT22;3995;50.856;4.404;2022-12-10T05:05:25;7.50;48.60
7900;DHT22;3995;50.856;4.404;2022-12-10T05:07:52;7.50;48.50
7900;DHT22;3995;50.856;4.404;2022-12-10T05:10:19;7.50;48.50
7900;DHT22;3995;50.856;4.404;2022-12-10T05:12:46;7.40;48.30
7900;DHT22;3995;50.856;4.404;2022-12-10T05:15:16;7.30;48.40
7900;DHT22;3995;50.856;4.404;2022-12-10T05:17:43;7.30;48.70
7900;DHT22;3995;50.856;4.404;2022-12-10T05:20:10;7.30;48.90
7900;DHT22;3995;50.856;4.404;2022-12-10T05:22:37;7.30;48.90
7900;DHT22;3995;50.856;4.404;2022-12-10T05:25:22;7.30;49.00
7900;DHT22;3995;50.856;4.404;2022-12-10T05:27:49;7.30;49.00
7900;DHT22;3995;50.856;4.404;2022-12-10T05:30:18;7.30;48.90
7900;DHT22;3995;50.856;4.404;2022-12-10T05:32:46;7.40;49.10
7900;DHT22;3995;50.856;4.404;2022-12-10T05:35:13;7.30;49.10
7900;DHT22;3995;50.856;4.404;2022-12-10T05:37:40;7.30;49.10
7900;DHT22;3995;50.856;4.404;2022-12-10T05:40:09;7.30;49.00
7900;DHT22;3995;50.856;4.404;2022-12-10T05:42:36;7.30;49.20
7900;DHT22;3995;50.856;4.404;2022-12-10T05:45:04;7.30;49.30
7900;DHT22;3995;50.856;4.404;2022-12-10T05:47:33;7.40;49.40
7900;DHT22;3995;50.856;4.404;2022-12-10T05:50:00;7.40;49.40
7900;DHT22;3995;50.856;4.404;2022-12-10T05:52:27;7.40;49.40
7900;DHT22;3995;50.856;4.404;2022-12-10T05:54:54;7.40;49.30
7900;DHT22;3995;50.856;4.404;2022-12-10T05:57:22;7.40;49.40
7900;DHT22;3995;50.856;4.404;2022-12-10T05:59:49;7.40;49.40
7900;DHT22;3995;50.856;4.404;2022-12-10T06:02:16;7.40;49.40
7900;DHT22;3995;50.856;4.404;2022-12-10T06:04:45;7.40;49.30
7900;DHT22;3995;50.856;4.404;2022-12-10T06:07:12;7.40;49.30
7900;DHT22;3995;50.856;4.404;2022-12-10T06:09:40;7.40;49.20
7900;DHT22;3995;50.856;4.404;2022-12-10T06:12:07;7.40;49.30
7900;DHT22;3995;50.856;4.404;2022-12-10T06:14:34;7.40;49.20
7900;DHT22;3995;50.856;4.404;2022-12-10T06:17:01;7.40;49.20
7900;DHT22;3995;50.856;4.404;2022-12-10T06:19:29;7.40;49.10
7900;DHT22;3995;50.856;4.404;2022-12-10T06:21:58;7.40;49.20
7900;DHT22;3995;50.856;4.404;2022-12-10T06:24:25;7.40;49.30
7900;DHT22;3995;50.856;4.404;2022-12-10T06:26:52;7.40;49.30
7900;DHT22;3995;50.856;4.404;2022-12-10T06:29:20;7.40;49.80
7900;DHT22;3995;50.856;4.404;2022-12-10T06:31:47;7.40;49.20
7900;DHT22;3995;50.856;4.404;2022-12-10T06:34:14;7.40;49.30
7900;DHT22;3995;50.856;4.404;2022-12-10T06:36:41;7.40;49.40
7900;DHT22;3995;50.856;4.404;2022-12-10T06:39:11;7.40;49.40
7900;DHT22;3995;50.856;4.404;2022-12-10T06:41:38;7.30;49.40
7900;DHT22;3995;50.856;4.404;2022-12-10T06:44:09;7.30;49.60
7900;DHT22;3995;50.856;4.404;2022-12-10T06:46:37;7.30;49.60
7900;DHT22;3995;50.856;4.404;2022-12-10T06:49:04;7.30;49.60
7900;DHT22;3995;50.856;4.404;2022-12-10T06:51:31;7.30;49.60
7900;DHT22;3995;50.856;4.404;2022-12-10T06:53:58;7.30;49.60
7900;DHT22;3995;50.856;4.404;2022-12-10T06:56:27;7.30;49.80
7900;DHT22;3995;50.856;4.404;2022-12-10T06:58:54;7.30;49.80
7900;DHT22;3995;50.856;4.404;2022-12-10T07:01:23;7.30;49.80
7900;DHT22;3995;50.856;4.404;2022-12-10T07:03:52;7.20;49.70
7900;DHT22;3995;50.856;4.404;2022-12-10T07:06:20;7.20;49.70
7900;DHT22;3995;50.856;4.404;2022-12-10T07:08:47;7.20;49.70
7900;DHT22;3995;50.856;4.404;2022-12-10T07:11:18;7.10;49.80
7900;DHT22;3995;50.856;4.404;2022-12-10T07:13:47;7.10;50.00
7900;DHT22;3995;50.856;4.404;2022-12-10T07:16:18;7.10;50.30
7900;DHT22;3995;50.856;4.404;2022-12-10T07:18:47;7.10;50.20
7900;DHT22;3995;50.856;4.404;2022-12-10T07:21:15;7.10;50.80
7900;DHT22;3995;50.856;4.404;2022-12-10T07:23:43;7.10;49.90
7900;DHT22;3995;50.856;4.404;2022-12-10T07:26:10;7.10;49.80
7900;DHT22;3995;50.856;4.404;2022-12-10T07:28:37;7.10;49.80
7900;DHT22;3995;50.856;4.404;2022-12-10T07:31:08;7.10;50.00
7900;DHT22;3995;50.856;4.404;2022-12-10T07:33:36;7.10;50.00
7900;DHT22;3995;50.856;4.404;2022-12-10T07:36:04;7.10;49.90
7900;DHT22;3995;50.856;4.404;2022-12-10T07:38:31;7.10;50.10
7900;DHT22;3995;50.856;4.404;2022-12-10T07:41:02;7.10;50.80
7900;DHT22;3995;50.856;4.404;2022-12-10T07:43:30;7.20;50.20
7900;DHT22;3995;50.856;4.404;2022-12-10T07:46:03;7.10;50.10
7900;DHT22;3995;50.856;4.404;2022-12-10T07:48:33;7.10;50.10
7900;DHT22;3995;50.856;4.404;2022-12-10T07:51:01;7.10;50.30
7900;DHT22;3995;50.856;4.404;2022-12-10T07:53:28;7.00;50.30
7900;DHT22;3995;50.856;4.404;2022-12-10T07:55:56;7.10;50.40
7900;DHT22;3995;50.856;4.404;2022-12-10T07:58:23;7.10;50.20
7900;DHT22;3995;50.856;4.404;2022-12-10T08:00:50;7.10;50.00
7900;DHT22;3995;50.856;4.404;2022-12-10T08:03:17;7.10;49.90
7900;DHT22;3995;50.856;4.404;2022-12-10T08:05:46;7.10;50.00
7900;DHT22;3995;50.856;4.404;2022-12-10T08:08:13;7.10;50.10
7900;DHT22;3995;50.856;4.404;2022-12-10T08:10:41;7.10;50.30
7900;DHT22;3995;50.856;4.404;2022-12-10T08:13:08;7.10;50.40
7900;DHT22;3995;50.856;4.404;2022-12-10T08:15:36;7.10;50.40
7900;DHT22;3995;50.856;4.404;2022-12-10T08:18:03;7.10;50.40
7900;DHT22;3995;50.856;4.404;2022-12-10T08:20:31;7.10;50.30
7900;DHT22;3995;50.856;4.404;2022-12-10T08:23:00;7.20;50.20
7900;DHT22;3995;50.856;4.404;2022-12-10T08:25:27;7.20;50.20
7900;DHT22;3995;50.856;4.404;2022-12-10T08:27:54;7.20;50.00
7900;DHT22;3995;50.856;4.404;2022-12-10T08:30:23;7.10;49.90
7900;DHT22;3995;50.856;4.404;2022-12-10T08:32:51;7.10;49.90
7900;DHT22;3995;50.856;4.404;2022-12-10T08:35:18;7.10;50.00
7900;DHT22;3995;50.856;4.404;2022-12-10T08:37:45;7.10;50.10
7900;DHT22;3995;50.856;4.404;2022-12-10T08:40:14;7.10;50.00
7900;DHT22;3995;50.856;4.404;2022-12-10T08:42:41;7.10;50.00
7900;DHT22;3995;50.856;4.404;2022-12-10T08:45:09;7.00;50.00
7900;DHT22;3995;50.856;4.404;2022-12-10T08:47:36;7.00;50.10
7900;DHT22;3995;50.856;4.404;2022-12-10T08:50:04;7.10;50.20
7900;DHT22;3995;50.856;4.404;2022-12-10T08:52:31;7.10;50.30
7900;DHT22;3995;50.856;4.404;2022-12-10T08:54:59;7.10;50.20
7900;DHT22;3995;50.856;4.404;2022-12-10T08:57:28;7.10;50.20
7900;DHT22;3995;50.856;4.404;2022-12-10T08:59:55;7.10;50.30
7900;DHT22;3995;50.856;4.404;2022-12-10T09:02:23;7.00;50.10
7900;DHT22;3995;50.856;4.404;2022-12-10T09:04:50;7.00;50.20
7900;DHT22;3995;50.856;4.404;2022-12-10T09:07:18;7.00;50.40
7900;DHT22;3995;50.856;4.404;2022-12-10T09:09:45;7.00;50.40
7900;DHT22;3995;50.856;4.404;2022-12-10T09:12:13;7.00;50.30
7900;DHT22;3995;50.856;4.404;2022-12-10T09:14:42;7.00;50.20
7900;DHT22;3995;50.856;4.404;2022-12-10T09:17:09;7.10;50.00
7900;DHT22;3995;50.856;4.404;2022-12-10T09:19:37;7.10;50.00
7900;DHT22;3995;50.856;4.404;2022-12-10T09:22:04;7.10;50.00
7900;DHT22;3995;50.856;4.404;2022-12-10T09:24:32;7.10;49.90
7900;DHT22;3995;50.856;4.404;2022-12-10T09:27:00;7.10;49.90
7900;DHT22;3995;50.856;4.404;2022-12-10T09:29:27;7.10;50.00
7900;DHT22;3995;50.856;4.404;2022-12-10T09:31:56;7.00;49.90
7900;DHT22;3995;50.856;4.404;2022-12-10T09:34:23;7.00;50.00
7900;DHT22;3995;50.856;4.404;2022-12-10T09:36:50;7.00;50.00
7900;DHT22;3995;50.856;4.404;2022-12-10T09:39:17;7.00;50.00
7900;DHT22;3995;50.856;4.404;2022-12-10T09:42:00;7.00;50.10
7900;DHT22;3995;50.856;4.404;2022-12-10T09:44:41;7.10;50.20
7900;DHT22;3995;50.856;4.404;2022-12-10T09:47:12;7.10;50.30
7900;DHT22;3995;50.856;4.404;2022-12-10T09:49:53;7.00;50.20
7900;DHT22;3995;50.856;4.404;2022-12-10T09:52:33;7.10;50.40
7900;DHT22;3995;50.856;4.404;2022-12-10T09:55:08;7.10;50.40
7900;DHT22;3995;50.856;4.404;2022-12-10T09:57:39;7.10;50.50
7900;DHT22;3995;50.856;4.404;2022-12-10T10:00:19;7.10;50.70
7900;DHT22;3995;50.856;4.404;2022-12-10T10:02:48;7.10;50.60
7900;DHT22;3995;50.856;4.404;2022-12-10T10:05:20;7.10;50.60
7900;DHT22;3995;50.856;4.404;2022-12-10T10:07:52;7.20;50.70
7900;DHT22;3995;50.856;4.404;2022-12-10T10:10:24;7.20;50.50
7900;DHT22;3995;50.856;4.404;2022-12-10T10:12:54;7.10;50.30
7900;DHT22;3995;50.856;4.404;2022-12-10T10:15:27;7.10;50.40
7900;DHT22;3995;50.856;4.404;2022-12-10T10:18:00;7.10;50.50
7900;DHT22;3995;50.856;4.404;2022-12-10T10:20:28;7.00;50.40
7900;DHT22;3995;50.856;4.404;2022-12-10T10:22:57;7.00;50.50
7900;DHT22;3995;50.856;4.404;2022-12-10T10:25:25;7.10;50.60
7900;DHT22;3995;50.856;4.404;2022-12-10T10:27:53;7.10;50.60
7900;DHT22;3995;50.856;4.404;2022-12-10T10:30:22;7.10;50.50
7900;DHT22;3995;50.856;4.404;2022-12-10T10:32:51;7.20;50.60
7900;DHT22;3995;50.856;4.404;2022-12-10T10:35:32;7.20;50.60
7900;DHT22;3995;50.856;4.404;2022-12-10T10:38:01;7.30;50.60
7900;DHT22;3995;50.856;4.404;2022-12-10T10:40:33;7.30;50.60
7900;DHT22;3995;50.856;4.404;2022-12-10T10:43:06;7.30;50.60
7900;DHT22;3995;50.856;4.404;2022-12-10T10:45:42;7.30;50.60
7900;DHT22;3995;50.856;4.404;2022-12-10T10:48:12;7.30;50.60
7900;DHT22;3995;50.856;4.404;2022-12-10T10:50:43;7.30;50.60
7900;DHT22;3995;50.856;4.404;2022-12-10T10:53:22;7.40;50.70
7900;DHT22;3995;50.856;4.404;2022-12-10T10:55:50;7.40;50.70
7900;DHT22;3995;50.856;4.404;2022-12-10T10:58:18;7.40;50.60
7900;DHT22;3995;50.856;4.404;2022-12-10T11:01:05;7.40;50.50
7900;DHT22;3995;50.856;4.404;2022-12-10T11:03:34;7.50;50.50
7900;DHT22;3995;50.856;4.404;2022-12-10T11:06:06;7.40;50.70
7900;DHT22;3995;50.856;4.404;2022-12-10T11:08:37;7.50;50.70
7900;DHT22;3995;50.856;4.404;2022-12-10T11:11:06;7.40;50.70
7900;DHT22;3995;50.856;4.404;2022-12-10T11:13:38;7.40;50.80
7900;DHT22;3995;50.856;4.404;2022-12-10T11:16:12;7.40;50.80
7900;DHT22;3995;50.856;4.404;2022-12-10T11:18:41;7.50;50.70
7900;DHT22;3995;50.856;4.404;2022-12-10T11:21:19;7.50;50.80
7900;DHT22;3995;50.856;4.404;2022-12-10T11:23:48;7.50;50.80
7900;DHT22;3995;50.856;4.404;2022-12-10T11:26:50;7.50;50.80
7900;DHT22;3995;50.856;4.404;2022-12-10T11:29:35;7.60;50.70
7900;DHT22;3995;50.856;4.404;2022-12-10T11:32:20;7.50;50.80
7900;DHT22;3995;50.856;4.404;2022-12-10T11:35:00;7.50;50.70
7900;DHT22;3995;50.856;4.404;2022-12-10T11:37:34;7.40;50.80
7900;DHT22;3995;50.856;4.404;2022-12-10T11:40:15;7.40;50.90
7900;DHT22;3995;50.856;4.404;2022-12-10T11:42:57;7.50;51.00
7900;DHT22;3995;50.856;4.404;2022-12-10T11:45:32;7.50;50.90
7900;DHT22;3995;50.856;4.404;2022-12-10T11:48:14;7.50;50.90
7900;DHT22;3995;50.856;4.404;2022-12-10T11:50:47;7.50;51.00
7900;DHT22;3995;50.856;4.404;2022-12-10T11:53:40;7.50;51.00
7900;DHT22;3995;50.856;4.404;2022-12-10T11:56:19;7.50;50.80
7900;DHT22;3995;50.856;4.404;2022-12-10T11:59:08;7.50;51.00
7900;DHT22;3995;50.856;4.404;2022-12-10T12:01:52;7.50;51.10
7900;DHT22;3995;50.856;4.404;2022-12-10T12:04:33;7.50;51.10
7900;DHT22;3995;50.856;4.404;2022-12-10T12:10:32;7.60;51.20
7900;DHT22;3995;50.856;4.404;2022-12-10T12:13:06;7.60;51.00
7900;DHT22;3995;50.856;4.404;2022-12-10T12:15:41;7.50;51.20
7900;DHT22;3995;50.856;4.404;2022-12-10T12:18:16;7.50;51.20
7900;DHT22;3995;50.856;4.404;2022-12-10T12:20:46;7.60;51.30
7900;DHT22;3995;50.856;4.404;2022-12-10T12:23:19;7.60;51.30
7900;DHT22;3995;50.856;4.404;2022-12-10T12:25:53;7.60;51.30
7900;DHT22;3995;50.856;4.404;2022-12-10T12:28:25;7.60;51.40
7900;DHT22;3995;50.856;4.404;2022-12-10T12:31:01;7.60;51.40
7900;DHT22;3995;50.856;4.404;2022-12-10T12:33:34;7.70;51.30
7900;DHT22;3995;50.856;4.404;2022-12-10T12:36:09;7.70;51.30
7900;DHT22;3995;50.856;4.404;2022-12-10T12:38:43;7.70;51.20
7900;DHT22;3995;50.856;4.404;2022-12-10T12:41:17;7.70;51.20
7900;DHT22;3995;50.856;4.404;2022-12-10T12:43:52;7.70;51.20
7900;DHT22;3995;50.856;4.404;2022-12-10T12:46:29;7.60;51.30
7900;DHT22;3995;50.856;4.404;2022-12-10T12:49:02;7.70;51.40
7900;DHT22;3995;50.856;4.404;2022-12-10T12:51:34;7.60;51.40
7900;DHT22;3995;50.856;4.404;2022-12-10T12:54:04;7.70;51.50
7900;DHT22;3995;50.856;4.404;2022-12-10T12:56:55;7.70;51.50
7900;DHT22;3995;50.856;4.404;2022-12-10T12:59:37;7.70;51.30
7900;DHT22;3995;50.856;4.404;2022-12-10T13:02:20;7.60;51.20
7900;DHT22;3995;50.856;4.404;2022-12-10T13:04:50;7.60;51.30
7900;DHT22;3995;50.856;4.404;2022-12-10T13:07:32;7.60;51.50
7900;DHT22;3995;50.856;4.404;2022-12-10T13:10:24;7.60;51.50
7900;DHT22;3995;50.856;4.404;2022-12-10T13:13:17;7.60;51.60
7900;DHT22;3995;50.856;4.404;2022-12-10T13:15:49;7.60;51.70
7900;DHT22;3995;50.856;4.404;2022-12-10T13:18:23;7.50;51.60
7900;DHT22;3995;50.856;4.404;2022-12-10T13:21:17;7.60;51.70
7900;DHT22;3995;50.856;4.404;2022-12-10T13:23:53;7.60;51.80
7900;DHT22;3995;50.856;4.404;2022-12-10T13:26:26;7.50;51.90
7900;DHT22;3995;50.856;4.404;2022-12-10T13:29:11;7.60;51.90
7900;DHT22;3995;50.856;4.404;2022-12-10T13:31:39;7.60;51.90
7900;DHT22;3995;50.856;4.404;2022-12-10T13:34:29;7.60;52.10
7900;DHT22;3995;50.856;4.404;2022-12-10T13:37:27;7.70;52.10
7900;DHT22;3995;50.856;4.404;2022-12-10T13:40:09;7.70;52.10
7900;DHT22;3995;50.856;4.404;2022-12-10T13:42:42;7.60;52.10
7900;DHT22;3995;50.856;4.404;2022-12-10T13:45:32;7.60;52.10
7900;DHT22;3995;50.856;4.404;2022-12-10T13:48:25;7.70;52.10
7900;DHT22;3995;50.856;4.404;2022-12-10T13:51:08;7.70;52.00
7900;DHT22;3995;50.856;4.404;2022-12-10T13:53:44;7.70;52.10
7900;DHT22;3995;50.856;4.404;2022-12-10T13:56:19;7.70;52.20
7900;DHT22;3995;50.856;4.404;2022-12-10T13:58:57;7.70;52.10
7900;DHT22;3995;50.856;4.404;2022-12-10T14:01:35;7.70;52.10
7900;DHT22;3995;50.856;4.404;2022-12-10T14:04:22;7.70;52.10
7900;DHT22;3995;50.856;4.404;2022-12-10T14:06:53;7.70;51.90
7900;DHT22;3995;50.856;4.404;2022-12-10T14:09:23;7.70;52.10
7900;DHT22;3995;50.856;4.404;2022-12-10T14:11:55;7.70;52.10
7900;DHT22;3995;50.856;4.404;2022-12-10T14:14:29;7.70;52.10
7900;DHT22;3995;50.856;4.404;2022-12-10T14:17:02;7.70;52.30
7900;DHT22;3995;50.856;4.404;2022-12-10T14:19:32;7.70;52.30
7900;DHT22;3995;50.856;4.404;2022-12-10T14:22:04;7.70;52.30
7900;DHT22;3995;50.856;4.404;2022-12-10T14:24:34;7.70;52.30
7900;DHT22;3995;50.856;4.404;2022-12-10T14:27:14;7.70;52.40
7900;DHT22;3995;50.856;4.404;2022-12-10T14:29:45;7.80;52.30
7900;DHT22;3995;50.856;4.404;2022-12-10T14:32:17;7.70;52.20
7900;DHT22;3995;50.856;4.404;2022-12-10T14:34:50;7.70;52.30
7900;DHT22;3995;50.856;4.404;2022-12-10T14:37:24;7.70;52.30
7900;DHT22;3995;50.856;4.404;2022-12-10T14:39:54;7.70;52.50
7900;DHT22;3995;50.856;4.404;2022-12-10T14:42:22;7.70;52.60
7900;DHT22;3995;50.856;4.404;2022-12-10T14:44:54;7.70;52.60
7900;DHT22;3995;50.856;4.404;2022-12-10T14:47:24;7.70;52.50
7900;DHT22;3995;50.856;4.404;2022-12-10T14:49:54;7.70;52.50
7900;DHT22;3995;50.856;4.404;2022-12-10T14:52:23;7.70;52.50
7900;DHT22;3995;50.856;4.404;2022-12-10T14:54:52;7.70;52.60
7900;DHT22;3995;50.856;4.404;2022-12-10T14:57:23;7.70;52.50
7900;DHT22;3995;50.856;4.404;2022-12-10T14:59:58;7.70;52.70
7900;DHT22;3995;50.856;4.404;2022-12-10T15:02:30;7.70;52.70
7900;DHT22;3995;50.856;4.404;2022-12-10T15:04:58;7.70;52.70
7900;DHT22;3995;50.856;4.404;2022-12-10T15:07:31;7.70;52.70
7900;DHT22;3995;50.856;4.404;2022-12-10T15:10:05;7.70;52.70
7900;DHT22;3995;50.856;4.404;2022-12-10T15:12:37;7.70;52.80
7900;DHT22;3995;50.856;4.404;2022-12-10T15:15:13;7.70;52.80
7900;DHT22;3995;50.856;4.404;2022-12-10T15:17:43;7.70;52.80
7900;DHT22;3995;50.856;4.404;2022-12-10T15:20:20;7.70;52.90
7900;DHT22;3995;50.856;4.404;2022-12-10T15:22:48;7.60;52.90
7900;DHT22;3995;50.856;4.404;2022-12-10T15:25:25;7.60;52.90
7900;DHT22;3995;50.856;4.404;2022-12-10T15:27:58;7.70;53.20
7900;DHT22;3995;50.856;4.404;2022-12-10T15:30:35;7.60;53.20
7900;DHT22;3995;50.856;4.404;2022-12-10T15:33:20;7.70;53.20
7900;DHT22;3995;50.856;4.404;2022-12-10T15:35:48;7.70;53.40
7900;DHT22;3995;50.856;4.404;2022-12-10T15:38:15;7.60;53.20
7900;DHT22;3995;50.856;4.404;2022-12-10T15:40:44;7.60;53.20
7900;DHT22;3995;50.856;4.404;2022-12-10T15:43:19;7.60;53.30
7900;DHT22;3995;50.856;4.404;2022-12-10T15:45:50;7.70;53.30
7900;DHT22;3995;50.856;4.404;2022-12-10T15:48:20;7.70;53.40
7900;DHT22;3995;50.856;4.404;2022-12-10T15:50:50;7.70;53.20
7900;DHT22;3995;50.856;4.404;2022-12-10T15:53:24;7.70;53.20
7900;DHT22;3995;50.856;4.404;2022-12-10T15:55:51;7.70;53.10
7900;DHT22;3995;50.856;4.404;2022-12-10T15:58:19;7.70;53.10
7900;DHT22;3995;50.856;4.404;2022-12-10T16:00:46;7.70;53.20
7900;DHT22;3995;50.856;4.404;2022-12-10T16:03:15;7.70;53.30
7900;DHT22;3995;50.856;4.404;2022-12-10T16:05:44;7.70;53.30
7900;DHT22;3995;50.856;4.404;2022-12-10T16:08:17;7.70;53.30
7900;DHT22;3995;50.856;4.404;2022-12-10T16:10:45;7.70;53.20
7900;DHT22;3995;50.856;4.404;2022-12-10T16:13:16;7.70;53.20
7900;DHT22;3995;50.856;4.404;2022-12-10T16:15:48;7.70;53.20
7900;DHT22;3995;50.856;4.404;2022-12-10T16:18:17;7.70;53.20
7900;DHT22;3995;50.856;4.404;2022-12-10T16:20:46;7.70;53.20
7900;DHT22;3995;50.856;4.404;2022-12-10T16:23:13;7.70;53.20
7900;DHT22;3995;50.856;4.404;2022-12-10T16:25:42;7.70;53.30
7900;DHT22;3995;50.856;4.404;2022-12-10T16:28:12;7.70;53.20
7900;DHT22;3995;50.856;4.404;2022-12-10T16:30:42;7.70;53.20
7900;DHT22;3995;50.856;4.404;2022-12-10T16:33:10;7.70;53.10
7900;DHT22;3995;50.856;4.404;2022-12-10T16:35:38;7.70;53.10
7900;DHT22;3995;50.856;4.404;2022-12-10T16:38:07;7.70;53.10
7900;DHT22;3995;50.856;4.404;2022-12-10T16:40:34;7.60;53.40
7900;DHT22;3995;50.856;4.404;2022-12-10T16:43:02;7.60;53.20
7900;DHT22;3995;50.856;4.404;2022-12-10T16:45:31;7.60;53.20
7900;DHT22;3995;50.856;4.404;2022-12-10T16:48:03;7.60;53.20